Главная страница
METAR-TAF:

METAR-TAF

Аэропорты :

Стокмаркнес, Норвегия

широта: 68-35N, долгота: 015-01E, высота над уровнем моря: 0 м

Текущие метеонаблюдения

Эта сводка был подготовлена 31 минут назад, в 15:50 UTC
Ветер 7 Узел от восточный
Температура 16°C
Влажность 68%
Давление 1012 hPa
Видимость 10 км и более

METAR: ENSK 221550Z AUTO 08007KT 9999 BKN053/// 16/10 Q1012

Время: 18:21 (16:21 UTC)

Прогноз

Эта сводка был подготовлена 8 часа и 21 минут назад, в 08:00 UTC
Прогноз действительный с 22-го 09 UTC до 22-го 15 UTC
Ветер 4 Узел от юго-восточный
Видимость 10 км и более
Отдельные облака на высоте 4500 фута

TAF: ENSK 220800Z 2209/2215 14004KT 9999 SCT045

Метеонаблюдения и прогнозы для более 4000 аэропортов (сводки METAR и TAF).

Имеющиеся станции представлены на карте желтыми и красными точками.

Чтобы увидеть название станции, наведите на нее мышь.

Затем щелкните, чтобы увидеть метеонаблюдения и метеопрогнозы.

Управление картой: чтобы увеличить масштаб, щелкните зеленые кнопки с черным крестиком; чтобы уменьшить масштаб, щелкните зеленую кнопку с тире; для просмотра соседних карт щелкайте зеленые стрелки.


METAR-TAF: